Time;durP1;ratioP1;P1;durP2;ratioP2;P2;SDS_P1;SDS_P2;PMS_P1;PMS_P2;Temp;Humidity;BMP_temperature;BMP_pressure;BME280_temperature;BME280_humidity;BME280_pressure;Samples;Min_cycle;Max_cycle;Signal;HPM_P1;HPM_P2
2022/08/01 00:00:39;;;;;;;8.98;4.35;;;;;;;15.55;84.00;99048.63;8288142;28;20454;-79
2022/08/01 00:04:43;;;;;;;6.15;3.70;;;;;;;15.54;84.51;99052.50;8327678;28;20057;-80
2022/08/01 00:08:44;;;;;;;8.18;3.90;;;;;;;15.52;85.09;99053.97;8356784;28;20060;-79
2022/08/01 00:12:45;;;;;;;5.07;3.90;;;;;;;15.50;85.66;99040.66;8356969;28;20041;-80
2022/08/01 00:16:46;;;;;;;9.15;3.95;;;;;;;15.48;85.67;99040.22;8351736;28;20037;-79
2022/08/01 00:20:47;;;;;;;10.80;4.13;;;;;;;15.49;85.73;99039.06;8347489;28;20107;-79
2022/08/01 00:24:48;;;;;;;8.70;3.78;;;;;;;15.48;85.88;99032.06;8348994;28;20052;-79
2022/08/01 00:28:49;;;;;;;6.10;3.83;;;;;;;15.47;86.20;99035.91;8353080;28;20065;-80
2022/08/01 00:32:50;;;;;;;6.93;4.32;;;;;;;15.46;86.55;99034.31;8356378;28;20067;-79
2022/08/01 00:49:08;;;;;;;7.80;4.25;;;;;;;15.53;89.08;99029.13;8355298;28;20418;-83
2022/08/01 00:53:10;;;;;;;11.57;4.35;;;;;;;15.46;88.90;99028.88;8356746;28;20061;-84
2022/08/01 00:57:11;;;;;;;7.40;4.47;;;;;;;15.44;88.62;99031.13;8352528;28;20045;-84
2022/08/01 01:01:13;;;;;;;8.98;4.50;;;;;;;15.38;88.70;99037.97;8360969;28;20429;-84
2022/08/01 01:05:14;;;;;;;7.10;4.28;;;;;;;15.36;88.48;99028.53;8356210;28;20119;-83
2022/08/01 01:09:37;;;;;;;8.32;4.63;;;;;;;15.27;89.21;99031.41;8354208;28;20057;-83
2022/08/01 01:13:44;;;;;;;7.25;4.57;;;;;;;15.20;89.80;99036.59;8354792;28;20379;-83
2022/08/01 01:18:08;;;;;;;11.55;5.15;;;;;;;15.18;89.65;99030.69;8366313;28;20061;-84
2022/08/01 01:22:20;;;;;;;7.90;5.05;;;;;;;15.11;90.31;99022.34;8313631;28;20064;-84
2022/08/01 01:26:21;;;;;;;13.60;5.20;;;;;;;15.11;90.03;99016.91;8332625;28;20050;-84
2022/08/01 01:30:23;;;;;;;7.75;4.85;;;;;;;15.11;89.89;99012.25;8315261;28;20132;-84
2022/08/01 01:34:28;;;;;;;9.02;4.65;;;;;;;15.11;90.06;99011.44;8333899;28;20446;-84
2022/08/01 01:38:32;;;;;;;6.88;4.50;;;;;;;15.07;91.13;99015.97;8314810;28;20072;-84
2022/08/01 01:42:34;;;;;;;7.60;4.38;;;;;;;15.09;90.66;99013.72;8311944;28;20042;-84
2022/08/01 01:46:35;;;;;;;5.50;4.20;;;;;;;15.09;91.13;99014.50;8330085;28;20121;-84
2022/08/01 01:50:38;;;;;;;5.00;4.50;;;;;;;15.10;91.59;99004.41;8329214;28;20053;-83
2022/08/01 01:54:42;;;;;;;8.95;4.57;;;;;;;15.11;91.62;98998.66;8325079;28;20637;-84
2022/08/01 01:58:44;;;;;;;10.50;4.95;;;;;;;15.12;91.46;99002.16;8313532;28;20060;-84
2022/08/01 02:02:45;;;;;;;5.68;5.05;;;;;;;15.13;91.47;98998.28;8333147;28;20053;-83
2022/08/01 02:06:47;;;;;;;10.48;4.95;;;;;;;15.13;91.25;98995.56;8331998;28;20099;-84
2022/08/01 02:15:09;;;;;;;8.88;4.68;;;;;;;15.10;91.37;98993.53;8338410;28;20049;-83
2022/08/01 02:19:10;;;;;;;6.80;4.78;;;;;;;15.11;91.48;98992.41;8342175;28;20179;-83
2022/08/01 02:23:12;;;;;;;8.27;5.18;;;;;;;15.12;91.53;98985.84;8344072;28;20041;-83
2022/08/01 02:27:15;;;;;;;9.23;4.60;;;;;;;15.12;91.84;98991.28;8329917;28;20124;-83
2022/08/01 02:31:20;;;;;;;6.57;4.47;;;;;;;15.17;91.49;99004.66;8330911;28;20103;-83
2022/08/01 02:35:26;;;;;;;8.77;4.75;;;;;;;15.18;91.65;98995.34;8330747;28;20144;-83
2022/08/01 02:39:30;;;;;;;7.85;4.93;;;;;;;15.19;91.84;98986.03;8347190;28;20490;-82
2022/08/01 02:43:34;;;;;;;5.68;4.95;;;;;;;15.23;91.57;98992.38;8333654;28;20508;-82
2022/08/01 02:47:36;;;;;;;7.10;4.88;;;;;;;15.22;91.99;98990.81;8349359;28;20052;-82
2022/08/01 02:51:38;;;;;;;9.43;5.45;;;;;;;15.25;91.90;98995.56;8373652;28;20354;-82
2022/08/01 02:55:40;;;;;;;9.57;5.05;;;;;;;15.25;91.64;99001.00;8362899;28;20075;-82
2022/08/01 02:59:43;;;;;;;7.85;5.00;;;;;;;15.27;91.42;98997.94;8377677;28;20057;-83
2022/08/01 03:03:44;;;;;;;9.30;5.60;;;;;;;15.26;91.83;98994.44;8375010;28;20135;-83
2022/08/01 03:07:45;;;;;;;10.07;4.93;;;;;;;15.26;91.61;99002.59;8374002;28;20089;-83
2022/08/01 03:11:48;;;;;;;12.75;5.57;;;;;;;15.28;91.32;98994.88;8356724;28;20049;-82
2022/08/01 03:15:49;;;;;;;6.00;5.03;;;;;;;15.28;91.28;99000.31;8364438;28;20094;-82
2022/08/01 03:19:52;;;;;;;5.60;4.70;;;;;;;15.29;91.13;98998.38;8362202;28;20041;-83
2022/08/01 03:23:56;;;;;;;10.35;5.38;;;;;;;15.28;91.44;99000.31;8317622;28;20049;-83
2022/08/01 03:27:59;;;;;;;11.60;5.55;;;;;;;15.28;91.83;99005.75;8364031;28;20041;-84
2022/08/01 03:32:01;;;;;;;7.25;5.07;;;;;;;15.32;91.41;99006.69;8377106;28;20387;-86
2022/08/01 03:36:04;;;;;;;7.00;5.18;;;;;;;15.33;91.72;99002.81;8360818;28;20052;-84
2022/08/01 03:40:07;;;;;;;14.13;4.97;;;;;;;15.40;91.20;98997.59;8361966;28;20033;-85
2022/08/01 03:44:13;;;;;;;5.07;4.13;;;;;;;15.48;90.95;98993.94;8362897;28;20120;-86
2022/08/01 03:48:16;;;;;;;6.70;4.82;;;;;;;15.53;90.33;98991.03;8375349;28;20053;-86
2022/08/01 03:52:18;;;;;;;6.70;4.95;;;;;;;15.58;90.18;98995.44;8319504;28;20053;-85
2022/08/01 03:56:19;;;;;;;7.22;5.07;;;;;;;15.66;89.74;98999.13;8333877;28;20115;-85
2022/08/01 04:00:21;;;;;;;8.93;5.20;;;;;;;15.69;89.67;98996.53;8359160;28;20506;-85
2022/08/01 04:04:22;;;;;;;8.70;5.10;;;;;;;15.73;89.33;99002.06;8344220;28;20183;-85
2022/08/01 04:08:23;;;;;;;7.85;4.90;;;;;;;15.72;89.37;99005.94;8349056;28;20049;-85
2022/08/01 04:12:24;;;;;;;9.43;5.15;;;;;;;15.71;89.61;99001.63;8334302;28;20148;-85
2022/08/01 04:16:25;;;;;;;8.95;5.20;;;;;;;15.72;89.34;99004.00;8341840;28;20498;-85
2022/08/01 04:20:26;;;;;;;8.02;4.93;;;;;;;15.76;89.14;99004.09;8331110;28;20049;-86
2022/08/01 04:24:29;;;;;;;7.68;5.05;;;;;;;15.69;89.26;99003.91;8338547;28;20052;-85
2022/08/01 04:28:32;;;;;;;9.65;5.63;;;;;;;15.67;89.26;99011.63;8350227;28;20087;-87
2022/08/01 04:32:35;;;;;;;7.53;5.00;;;;;;;15.67;88.94;99000.72;8351977;28;20054;-84
2022/08/01 04:36:36;;;;;;;7.10;5.30;;;;;;;15.67;88.74;99000.72;8333852;28;20041;-85
2022/08/01 04:40:38;;;;;;;8.70;4.75;;;;;;;15.69;88.44;99003.91;8329195;28;20058;-84
2022/08/01 04:44:40;;;;;;;6.60;5.00;;;;;;;15.72;88.12;99005.94;8332571;28;20549;-85
2022/08/01 04:48:41;;;;;;;5.60;4.63;;;;;;;15.73;88.08;99004.81;8355958;28;20485;-84
2022/08/01 04:52:42;;;;;;;9.88;5.22;;;;;;;15.72;87.87;98997.75;8361243;28;20124;-84
2022/08/01 04:56:43;;;;;;;9.05;5.00;;;;;;;15.69;87.71;98998.47;8362730;28;20716;-85
2022/08/01 05:00:43;;;;;;;8.00;4.88;;;;;;;15.65;87.74;99003.03;8361929;28;20529;-84
2022/08/01 05:04:45;;;;;;;9.35;4.97;;;;;;;15.62;87.94;99005.28;8361979;28;20041;-84
2022/08/01 05:08:46;;;;;;;7.07;5.00;;;;;;;15.66;87.99;99010.03;8360945;28;20446;-84
2022/08/01 05:12:47;;;;;;;8.15;5.10;;;;;;;15.66;87.88;99010.81;8357465;28;20046;-84
2022/08/01 05:16:48;;;;;;;10.90;5.40;;;;;;;15.71;87.56;99013.31;8352230;28;20049;-85
2022/08/01 05:20:49;;;;;;;7.43;5.72;;;;;;;15.73;87.63;99016.47;8361666;28;20037;-84
2022/08/01 05:24:49;;;;;;;10.75;6.10;;;;;;;15.76;87.44;99015.78;8360271;28;20068;-85
2022/08/01 05:28:50;;;;;;;6.85;5.30;;;;;;;15.77;88.03;99013.84;8361505;28;20049;-86
2022/08/01 05:32:51;;;;;;;8.38;5.57;;;;;;;15.80;87.96;99011.25;8362598;28;20484;-85
2022/08/01 05:36:53;;;;;;;8.52;5.50;;;;;;;15.91;87.65;99011.56;8367607;28;20095;-86
2022/08/01 05:40:54;;;;;;;8.65;5.65;;;;;;;16.00;87.34;99009.47;8367608;28;20395;-85
2022/08/01 05:44:55;;;;;;;8.75;5.75;;;;;;;16.10;87.24;99003.53;8354681;28;20037;-85
2022/08/01 05:48:59;;;;;;;15.15;5.32;;;;;;;16.21;86.91;99010.06;8364619;28;20049;-86
2022/08/01 05:53:00;;;;;;;7.15;5.35;;;;;;;16.28;86.77;99010.28;8352260;28;20040;-84
2022/08/01 05:57:01;;;;;;;15.60;5.35;;;;;;;16.41;86.47;99011.78;8365872;28;20055;-85
2022/08/01 06:01:02;;;;;;;10.07;5.18;;;;;;;16.57;85.92;99011.00;8353418;28;20049;-84
2022/08/01 06:05:03;;;;;;;10.52;5.93;;;;;;;16.68;85.97;99012.09;8366218;28;20095;-84
2022/08/01 06:09:04;;;;;;;7.70;5.40;;;;;;;16.81;85.62;99010.88;8362564;28;20029;-84
2022/08/01 06:13:05;;;;;;;11.13;5.50;;;;;;;16.96;85.35;99012.81;8356577;28;20401;-85
2022/08/01 06:17:06;;;;;;;9.63;5.60;;;;;;;17.15;85.08;99015.59;8341333;28;20049;-84
2022/08/01 06:21:09;;;;;;;10.52;6.00;;;;;;;17.37;84.45;99018.81;8353816;28;20059;-85
2022/08/01 06:25:10;;;;;;;11.80;5.30;;;;;;;17.59;83.69;99018.16;8356597;28;20048;-85
2022/08/01 06:29:11;;;;;;;7.88;5.32;;;;;;;17.86;83.02;99017.22;8332768;28;20512;-85
2022/08/01 06:33:12;;;;;;;11.02;5.47;;;;;;;18.16;82.20;99020.16;8336224;28;20115;-85
2022/08/01 06:37:14;;;;;;;11.38;5.75;;;;;;;18.47;81.56;99019.19;8345435;28;20432;-84
2022/08/01 06:41:15;;;;;;;10.90;5.18;;;;;;;18.76;79.50;99021.31;8332732;28;20497;-88
2022/08/01 06:45:16;;;;;;;6.75;5.60;;;;;;;18.92;78.71;99019.25;8342280;28;20057;-86
2022/08/01 06:49:18;;;;;;;9.05;5.85;;;;;;;19.01;79.02;99020.94;8365526;28;20497;-85
2022/08/01 06:53:18;;;;;;;6.50;5.38;;;;;;;18.98;78.35;99023.22;8350199;28;20044;-83
2022/08/01 06:57:20;;;;;;;8.98;5.68;;;;;;;18.95;78.39;99025.91;8318632;28;20056;-84
2022/08/01 07:01:20;;;;;;;8.25;5.07;;;;;;;18.96;78.15;99009.13;8364504;28;20048;-84
2022/08/01 07:05:22;;;;;;;8.18;5.78;;;;;;;19.10;78.18;99015.97;8363303;28;20433;-84
2022/08/01 07:09:23;;;;;;;10.43;6.07;;;;;;;19.17;77.45;99016.09;8364447;28;20083;-81
2022/08/01 07:13:27;;;;;;;8.55;5.30;;;;;;;19.25;76.82;99015.03;8380206;28;20645;-83
2022/08/01 07:17:28;;;;;;;6.93;5.72;;;;;;;19.31;77.32;99024.53;8363902;28;20119;-85
2022/08/01 07:21:29;;;;;;;7.88;4.97;;;;;;;19.50;77.16;99010.78;8364131;28;20044;-83
2022/08/01 07:25:30;;;;;;;9.45;5.95;;;;;;;19.67;76.06;99021.16;8343933;28;20076;-86
2022/08/01 07:29:31;;;;;;;11.80;5.57;;;;;;;19.76;76.02;99029.91;8346719;28;20421;-84
2022/08/01 07:33:32;;;;;;;9.27;5.97;;;;;;;19.93;75.17;99023.09;8342007;28;20053;-83
2022/08/01 07:37:41;;;;;;;7.50;5.97;;;;;;;20.31;74.92;99027.47;8349366;28;20139;-85
2022/08/01 07:41:42;;;;;;;10.32;6.13;;;;;;;20.65;73.65;99015.28;8347602;28;20048;-85
2022/08/01 07:45:50;;;;;;;7.65;5.43;;;;;;;20.90;72.40;99031.19;8349083;28;20183;-82
2022/08/01 07:50:03;;;;;;;9.77;6.00;;;;;;;21.08;71.63;99026.66;8355825;28;20075;-85
2022/08/01 07:54:07;;;;;;;7.25;5.38;;;;;;;21.27;70.98;99037.41;8327902;28;20060;-85
2022/08/01 07:58:08;;;;;;;7.40;5.93;;;;;;;21.68;70.24;99031.81;8338447;28;20464;-84
2022/08/01 08:02:09;;;;;;;12.25;6.10;;;;;;;21.97;68.24;99033.53;8357330;28;20053;-83
2022/08/01 08:06:10;;;;;;;11.00;5.20;;;;;;;22.11;66.96;99030.84;8299507;28;20041;-87
2022/08/01 08:10:11;;;;;;;13.48;5.60;;;;;;;22.23;66.14;99030.50;8338312;28;20120;-84
2022/08/01 08:14:12;;;;;;;7.32;5.00;;;;;;;22.24;66.91;99032.06;8344114;28;20132;-84
2022/08/01 08:18:15;;;;;;;9.60;5.60;;;;;;;22.26;67.10;99035.22;8355321;28;20485;-84
2022/08/01 08:22:15;;;;;;;10.60;5.18;;;;;;;22.15;67.06;99039.91;8351978;28;20101;-85
2022/08/01 08:26:16;;;;;;;10.77;6.18;;;;;;;22.14;67.05;99043.84;8349641;28;20069;-84
2022/08/01 08:30:17;;;;;;;8.30;5.25;;;;;;;22.11;67.65;99044.59;8339211;28;20128;-84
2022/08/01 08:34:22;;;;;;;7.68;5.47;;;;;;;22.13;68.05;99053.25;8345503;28;20037;-84
2022/08/01 08:38:27;;;;;;;6.93;5.50;;;;;;;21.99;67.64;99058.69;8340329;28;20056;-85
2022/08/01 08:42:28;;;;;;;11.60;5.25;;;;;;;21.87;67.96;99056.25;8343966;28;20045;-84
2022/08/01 08:46:32;;;;;;;9.85;5.38;;;;;;;21.84;67.96;99057.00;8343552;28;20049;-85
2022/08/01 08:50:33;;;;;;;9.57;5.22;;;;;;;21.85;67.69;99064.06;8361440;28;20048;-85
2022/08/01 08:54:36;;;;;;;8.93;5.05;;;;;;;21.96;68.03;99064.16;8361476;28;20137;-85
2022/08/01 08:58:38;;;;;;;5.78;4.72;;;;;;;22.05;68.17;99068.13;8377083;28;20053;-84
2022/08/01 09:02:43;;;;;;;8.65;5.55;;;;;;;22.12;67.87;99073.66;8357327;28;20057;-84
2022/08/01 09:06:44;;;;;;;6.75;4.80;;;;;;;22.12;67.11;99086.63;8345590;28;20481;-84
2022/08/01 09:10:47;;;;;;;9.10;4.68;;;;;;;21.98;67.37;99090.09;8342448;28;20042;-84
2022/08/01 09:14:49;;;;;;;9.38;4.70;;;;;;;21.86;67.58;99082.16;8349893;28;20436;-84
2022/08/01 09:18:50;;;;;;;12.30;5.05;;;;;;;21.86;68.52;99082.16;8361880;28;20102;-84
2022/08/01 09:22:51;;;;;;;10.65;4.78;;;;;;;21.89;68.73;99087.66;8351229;28;20490;-86
2022/08/01 09:26:54;;;;;;;8.93;4.93;;;;;;;22.00;68.45;99075.97;8352510;28;20055;-85
2022/08/01 09:30:57;;;;;;;9.77;5.75;;;;;;;22.21;68.31;99087.06;8363043;28;20045;-86
2022/08/01 09:35:24;;;;;;;10.30;5.68;;;;;;;22.25;68.19;99083.16;8348100;28;20052;-84
2022/08/01 09:39:33;;;;;;;6.53;5.10;;;;;;;22.17;68.20;99076.06;8353442;28;20114;-83
2022/08/01 09:43:37;;;;;;;10.90;5.05;;;;;;;22.25;68.01;99087.88;8350869;28;20050;-85
2022/08/01 09:47:42;;;;;;;8.32;4.65;;;;;;;22.37;67.05;99083.97;8366745;28;20076;-85
2022/08/01 09:51:42;;;;;;;7.07;4.45;;;;;;;22.61;66.86;99091.53;8366889;28;20469;-85
2022/08/01 09:55:46;;;;;;;9.93;4.80;;;;;;;22.84;65.77;99086.50;8366344;28;20041;-84
2022/08/01 09:59:49;;;;;;;8.05;4.30;;;;;;;22.95;65.13;99087.31;8329900;28;20053;-84
2022/08/01 10:04:07;;;;;;;5.78;4.70;;;;;;;23.06;65.72;99082.59;8329780;28;20064;-83
2022/08/01 10:08:08;;;;;;;7.50;4.28;;;;;;;23.14;65.70;99083.41;8330438;28;20049;-84
2022/08/01 10:12:10;;;;;;;8.13;4.40;;;;;;;23.26;65.96;99084.97;8314699;28;20077;-84
2022/08/01 10:16:12;;;;;;;5.72;3.75;;;;;;;23.25;64.38;99077.91;8324301;28;20183;-84
2022/08/01 10:20:13;;;;;;;12.13;4.15;;;;;;;23.22;64.56;99073.16;8319244;28;20552;-84
2022/08/01 10:24:15;;;;;;;8.90;4.10;;;;;;;23.31;63.67;99065.31;8306705;28;20081;-85
2022/08/01 10:28:17;;;;;;;4.60;3.53;;;;;;;23.59;63.00;99068.03;8292386;28;20049;-83
2022/08/01 10:32:18;;;;;;;5.47;3.42;;;;;;;23.76;62.66;99072.75;8347430;28;20041;-84
2022/08/01 10:36:21;;;;;;;6.13;3.83;;;;;;;23.83;62.73;99069.97;8362319;28;20515;-84
2022/08/01 10:40:21;;;;;;;7.55;4.00;;;;;;;23.91;63.52;99071.50;8357640;28;20037;-84
2022/08/01 10:44:27;;;;;;;8.65;3.53;;;;;;;24.14;62.76;99056.47;8334751;28;20041;-86
2022/08/01 10:48:53;;;;;;;7.85;3.90;;;;;;;24.35;61.63;99050.88;8358059;28;20136;-83
2022/08/01 10:53:07;;;;;;;5.97;3.63;;;;;;;24.44;61.49;99059.50;8355104;28;20579;-84
2022/08/01 10:57:08;;;;;;;4.25;3.50;;;;;;;24.70;61.30;99067.25;8362916;28;20133;-84
2022/08/01 11:01:35;;;;;;;6.55;3.38;;;;;;;24.76;60.51;99054.59;8348961;28;20041;-84
2022/08/01 11:05:36;;;;;;;4.72;3.33;;;;;;;24.96;60.21;99059.59;8360496;28;20056;-84
2022/08/01 11:09:45;;;;;;;5.57;3.47;;;;;;;24.78;60.40;99056.97;8315328;28;20061;-83
2022/08/01 11:13:58;;;;;;;3.70;3.28;;;;;;;25.20;59.98;99061.41;8357071;28;20087;-85
2022/08/01 11:18:02;;;;;;;7.00;3.33;;;;;;;25.57;59.53;99058.72;8361286;28;20052;-85
2022/08/01 11:22:03;;;;;;;4.90;2.97;;;;;;;25.24;59.96;99067.69;8349821;28;20668;-84
2022/08/01 11:26:04;;;;;;;4.55;3.33;;;;;;;24.95;60.95;99066.34;8348918;28;20038;-85
2022/08/01 11:30:08;;;;;;;4.30;3.47;;;;;;;24.76;62.25;99065.63;8335550;28;20417;-85
2022/08/01 11:34:09;;;;;;;8.70;3.58;;;;;;;24.63;62.47;99067.31;8334849;28;20061;-84
2022/08/01 11:38:27;;;;;;;6.13;3.28;;;;;;;24.52;62.11;99061.06;8381138;28;20033;-81
2022/08/01 11:42:28;;;;;;;4.83;3.50;;;;;;;24.38;62.09;99061.13;8348006;28;20045;-85
2022/08/01 11:46:59;;;;;;;4.93;3.08;;;;;;;24.18;62.66;99068.31;8359866;28;20053;-85
2022/08/01 11:51:00;;;;;;;5.90;3.50;;;;;;;24.12;63.13;99069.88;8356246;28;20037;-84
2022/08/01 11:55:00;;;;;;;4.85;3.22;;;;;;;24.54;62.97;99061.44;8351109;28;20045;-84
2022/08/01 11:59:01;;;;;;;5.45;3.13;;;;;;;25.09;60.60;99055.19;8346424;28;20056;-83
2022/08/01 12:03:05;;;;;;;4.55;3.30;;;;;;;25.02;60.37;99044.97;8353476;28;20148;-85
2022/08/01 12:07:14;;;;;;;4.53;2.90;;;;;;;24.77;60.22;99056.16;8347605;28;20046;-86
2022/08/01 12:11:14;;;;;;;5.82;3.60;;;;;;;24.72;60.38;99062.13;8338540;28;20497;-84
2022/08/01 12:15:16;;;;;;;4.38;3.30;;;;;;;24.79;61.08;99059.31;8360979;28;20048;-84
2022/08/01 12:19:22;;;;;;;3.90;3.60;;;;;;;25.36;60.35;99064.44;8359935;28;20041;-83
2022/08/01 12:23:23;;;;;;;5.63;3.25;;;;;;;25.72;58.59;99064.09;8370068;28;20045;-85
2022/08/01 12:27:29;;;;;;;5.68;3.55;;;;;;;25.24;57.95;99062.16;8310742;28;20049;-84
2022/08/01 12:31:34;;;;;;;3.55;3.25;;;;;;;24.70;60.06;99056.19;8341888;28;20049;-84
2022/08/01 12:35:36;;;;;;;7.55;4.10;;;;;;;24.45;61.69;99061.09;8333433;28;20048;-83
2022/08/01 12:39:38;;;;;;;4.68;3.33;;;;;;;24.30;62.48;99054.06;8342148;28;20045;-83
2022/08/01 12:43:40;;;;;;;7.93;3.90;;;;;;;24.13;63.89;99060.41;8341609;28;20056;-84
2022/08/01 12:47:41;;;;;;;4.78;3.67;;;;;;;24.07;64.70;99067.53;8356627;28;20491;-84
2022/08/01 12:51:42;;;;;;;4.45;3.75;;;;;;;24.05;65.79;99078.19;8329257;28;20174;-83
2022/08/01 12:55:46;;;;;;;16.90;4.65;;;;;;;23.68;68.06;99084.97;8339608;28;20049;-84
2022/08/01 12:59:47;;;;;;;5.15;3.70;;;;;;;23.25;69.38;99083.41;8338562;28;20126;-85
2022/08/01 13:04:06;;;;;;;6.47;4.07;;;;;;;23.35;68.99;99077.09;8374597;28;20098;-84
2022/08/01 13:08:12;;;;;;;5.05;3.80;;;;;;;23.94;68.42;99070.75;8351944;28;20045;-84
2022/08/01 13:12:13;;;;;;;4.57;3.90;;;;;;;24.61;66.47;99063.38;8340056;28;20049;-85
2022/08/01 13:16:18;;;;;;;5.30;4.07;;;;;;;25.13;64.59;99072.50;8338687;28;20061;-84
2022/08/01 13:20:32;;;;;;;5.10;3.58;;;;;;;25.51;63.05;99071.41;8339165;28;20049;-84
2022/08/01 13:24:33;;;;;;;8.05;4.30;;;;;;;25.58;63.15;99071.38;8346581;28;20124;-84
2022/08/01 13:28:37;;;;;;;7.95;4.57;;;;;;;25.71;63.91;99068.06;8343692;28;20132;-84
2022/08/01 13:32:38;;;;;;;5.72;4.10;;;;;;;25.91;62.76;99063.53;8354629;28;20041;-84
2022/08/01 13:36:40;;;;;;;6.95;3.80;;;;;;;25.92;62.40;99062.31;8309027;28;20414;-84
2022/08/01 13:40:40;;;;;;;4.88;3.60;;;;;;;27.03;58.62;99068.00;8351207;28;20135;-85
2022/08/01 13:44:45;;;;;;;7.20;3.35;;;;;;;28.54;53.10;99058.09;8352294;28;20470;-86
2022/08/01 13:48:45;;;;;;;5.00;3.00;;;;;;;30.01;49.46;99062.44;8346596;28;20509;-86
2022/08/01 13:52:46;;;;;;;7.47;3.00;;;;;;;30.73;46.47;99056.34;8341012;28;20049;-86
2022/08/01 13:56:47;;;;;;;3.85;2.78;;;;;;;30.63;45.93;99064.59;8344496;28;20057;-85
2022/08/01 14:00:49;;;;;;;3.10;2.70;;;;;;;31.76;43.21;99070.50;8339994;28;20397;-86
2022/08/01 14:04:50;;;;;;;6.43;2.63;;;;;;;31.81;43.61;99067.16;8347263;28;20080;-88
2022/08/01 14:08:51;;;;;;;5.50;2.92;;;;;;;32.77;42.62;99069.97;8337168;28;20049;-84
2022/08/01 14:12:52;;;;;;;4.47;3.15;;;;;;;32.88;41.50;99064.75;8340313;28;20128;-87
2022/08/01 14:16:53;;;;;;;4.70;2.83;;;;;;;33.04;40.58;99061.69;8297223;28;20064;-87
2022/08/01 14:20:54;;;;;;;4.75;2.90;;;;;;;33.49;39.16;99063.03;8373909;28;20046;-86
2022/08/01 14:24:55;;;;;;;4.25;2.83;;;;;;;34.01;39.11;99075.22;8347558;28;20056;-85
2022/08/01 14:28:56;;;;;;;5.50;2.92;;;;;;;35.20;37.02;99067.28;8353455;28;20128;-89
2022/08/01 14:32:57;;;;;;;3.50;2.20;;;;;;;35.78;35.25;99072.38;8353014;28;20064;-90
2022/08/01 14:36:57;;;;;;;3.13;2.05;;;;;;;36.20;34.10;99075.78;8353448;28;20136;-86
2022/08/01 14:41:03;;;;;;;2.72;1.92;;;;;;;35.97;34.47;99074.53;8349240;28;20045;-89
2022/08/01 14:45:08;;;;;;;2.35;1.90;;;;;;;35.19;34.88;99077.75;8338955;28;20133;-86
2022/08/01 14:49:09;;;;;;;3.33;2.00;;;;;;;32.87;38.47;99085.56;8351591;28;20044;-86
2022/08/01 14:53:10;;;;;;;2.65;2.10;;;;;;;31.15;41.61;99088.47;8366067;28;20049;-87
2022/08/01 14:57:11;;;;;;;2.72;2.03;;;;;;;30.02;43.62;99077.91;8360655;28;20515;-86
2022/08/01 15:01:12;;;;;;;3.10;2.28;;;;;;;29.48;46.01;99075.75;8350076;28;20041;-88
2022/08/01 15:05:13;;;;;;;2.35;2.08;;;;;;;29.45;46.67;99076.63;8346357;28;20042;-87
2022/08/01 15:09:14;;;;;;;2.00;1.80;;;;;;;29.19;46.48;99080.41;8338500;28;20453;-85
2022/08/01 15:13:15;;;;;;;5.13;1.98;;;;;;;28.42;47.08;99078.19;8352364;28;20099;-86
2022/08/01 15:17:31;;;;;;;4.72;2.17;;;;;;;27.97;48.99;99086.97;8347151;28;20442;-85
2022/08/01 15:21:32;;;;;;;3.90;2.00;;;;;;;27.59;49.90;99077.41;8354195;28;20045;-87
2022/08/01 15:25:33;;;;;;;1.73;1.58;;;;;;;27.34;50.32;99079.81;8360695;28;20063;-88
2022/08/01 15:29:35;;;;;;;2.13;1.92;;;;;;;26.94;50.94;99076.06;8372872;28;20484;-86
2022/08/01 15:33:35;;;;;;;2.13;1.90;;;;;;;26.75;51.96;99081.06;8362922;28;20179;-84
2022/08/01 15:37:37;;;;;;;2.58;1.58;;;;;;;26.63;52.34;99083.63;8355078;28;20627;-86
2022/08/01 15:41:38;;;;;;;3.38;1.60;;;;;;;26.99;52.39;99084.69;8363584;28;20395;-85
2022/08/01 15:45:39;;;;;;;2.05;1.83;;;;;;;27.04;51.33;99087.00;8368773;28;20053;-84
2022/08/01 15:49:40;;;;;;;3.28;1.80;;;;;;;26.91;51.89;99104.63;8369394;28;20057;-84
2022/08/01 15:53:42;;;;;;;2.17;1.73;;;;;;;26.70;53.46;99114.00;8358550;28;20060;-84
2022/08/01 15:57:43;;;;;;;9.82;1.77;;;;;;;26.49;54.59;99124.13;8345337;28;20124;-84
2022/08/01 16:01:48;;;;;;;8.05;1.60;;;;;;;26.24;55.76;99129.19;8334197;28;20049;-84
2022/08/01 16:05:49;;;;;;;1.73;1.50;;;;;;;25.98;56.86;99132.59;8340653;28;20061;-85
2022/08/01 16:09:50;;;;;;;3.03;1.75;;;;;;;25.77;58.00;99138.34;8340941;28;20120;-85
2022/08/01 16:13:53;;;;;;;3.30;1.52;;;;;;;25.72;58.50;99152.63;8339469;28;20065;-84
2022/08/01 16:17:54;;;;;;;3.05;1.50;;;;;;;25.41;59.27;99138.63;8346959;28;20044;-84
2022/08/01 16:21:55;;;;;;;6.40;1.42;;;;;;;25.35;59.98;99145.78;8361639;28;20455;-89
2022/08/01 16:25:57;;;;;;;2.88;1.52;;;;;;;25.37;59.83;99137.88;8388884;28;20498;-85
2022/08/01 16:29:58;;;;;;;1.88;1.30;;;;;;;25.22;60.60;99130.88;8364938;28;20059;-85
2022/08/01 16:33:59;;;;;;;1.35;1.25;;;;;;;24.99;60.31;99130.63;8361687;28;20048;-86
2022/08/01 16:38:00;;;;;;;3.88;1.42;;;;;;;24.76;61.02;99128.38;8359234;28;20053;-84
2022/08/01 16:42:01;;;;;;;1.90;1.20;;;;;;;24.56;62.17;99130.84;8355132;28;20049;-83
2022/08/01 16:46:03;;;;;;;1.42;1.10;;;;;;;24.28;63.02;99128.19;8339582;28;20094;-84
2022/08/01 16:50:04;;;;;;;6.22;1.52;;;;;;;24.12;63.57;99127.81;8354671;28;20052;-83
2022/08/01 16:54:05;;;;;;;2.60;1.30;;;;;;;24.02;63.69;99123.09;8340951;28;20426;-83
2022/08/01 16:58:06;;;;;;;3.42;1.20;;;;;;;24.02;64.24;99125.88;8347599;28;20040;-88
2022/08/01 17:02:10;;;;;;;3.78;1.50;;;;;;;23.92;65.07;99131.00;8339254;28;20127;-87
2022/08/01 17:06:11;;;;;;;2.30;1.42;;;;;;;23.73;65.43;99131.44;8338562;28;20041;-88
2022/08/01 17:10:13;;;;;;;1.88;1.60;;;;;;;23.45;66.70;99140.50;8324623;28;20053;-91
2022/08/01 17:14:14;;;;;;;3.60;1.60;;;;;;;23.25;67.36;99166.06;8347226;28;20049;-91
2022/08/01 17:18:16;;;;;;;6.03;1.90;;;;;;;23.10;68.08;99166.03;8338492;28;20052;-88
2022/08/01 17:22:17;;;;;;;9.05;2.60;;;;;;;22.96;69.01;99173.47;8348802;28;20064;-88
2022/08/01 17:26:18;;;;;;;4.53;1.90;;;;;;;22.86;69.79;99179.72;8334165;28;20117;-86
2022/08/01 17:30:20;;;;;;;4.32;1.90;;;;;;;22.75;70.07;99187.94;8348576;28;20037;-86
2022/08/01 17:34:24;;;;;;;3.25;1.77;;;;;;;22.61;71.12;99188.66;8340279;28;20476;-86
2022/08/01 17:38:25;;;;;;;2.40;1.90;;;;;;;22.50;71.81;99193.34;8354610;28;20061;-86
2022/08/01 17:42:28;;;;;;;3.63;1.75;;;;;;;22.44;72.18;99199.59;8332913;28;20417;-84
2022/08/01 17:46:30;;;;;;;3.08;2.30;;;;;;;22.36;72.81;99208.97;8372775;28;20052;-85
2022/08/01 17:50:30;;;;;;;4.25;2.30;;;;;;;22.30;73.05;99206.59;8355197;28;20171;-86
2022/08/01 17:54:32;;;;;;;3.78;2.28;;;;;;;22.24;73.67;99208.13;8351873;28;20053;-86
2022/08/01 17:58:33;;;;;;;3.92;2.35;;;;;;;22.12;74.50;99213.94;8361535;28;20068;-85
2022/08/01 18:02:34;;;;;;;4.32;2.17;;;;;;;22.06;74.91;99218.22;8341146;28;20052;-85
2022/08/01 18:06:35;;;;;;;3.80;2.40;;;;;;;21.94;75.49;99214.97;8350370;28;20386;-84
2022/08/01 18:10:36;;;;;;;3.58;2.53;;;;;;;21.91;75.77;99216.50;8352111;28;20132;-85
2022/08/01 18:14:37;;;;;;;5.47;2.83;;;;;;;21.81;76.39;99211.72;8338921;28;20060;-85
2022/08/01 18:18:39;;;;;;;4.07;2.85;;;;;;;21.75;77.15;99213.22;8345484;28;20578;-86
2022/08/01 18:22:40;;;;;;;8.50;4.07;;;;;;;21.69;77.62;99212.00;8346025;28;20115;-84
2022/08/01 18:26:46;;;;;;;3.75;2.78;;;;;;;21.62;78.13;99209.22;8362869;28;20056;-87
2022/08/01 18:30:47;;;;;;;3.88;2.83;;;;;;;21.54;78.78;99202.06;8340712;28;20675;-85
2022/08/01 18:34:48;;;;;;;3.20;2.70;;;;;;;21.58;78.88;99213.88;8346878;28;20582;-86
2022/08/01 18:38:49;;;;;;;5.72;2.45;;;;;;;21.53;79.00;99222.44;8355235;28;20060;-85
2022/08/01 18:42:50;;;;;;;4.18;3.05;;;;;;;21.42;79.60;99230.59;8351306;28;20429;-85
2022/08/01 18:46:53;;;;;;;8.55;2.40;;;;;;;21.32;79.92;99240.31;8350209;28;20071;-85
2022/08/01 18:50:54;;;;;;;3.50;2.85;;;;;;;21.25;80.38;99240.25;8352748;28;20042;-85
2022/08/01 18:54:55;;;;;;;4.78;2.40;;;;;;;21.23;80.43;99241.78;8344165;28;20254;-85
2022/08/01 18:58:56;;;;;;;6.15;2.60;;;;;;;21.22;80.56;99246.50;8337007;28;20414;-85
2022/08/01 19:02:57;;;;;;;3.15;2.40;;;;;;;21.21;80.58;99250.41;8330931;28;20048;-85
2022/08/01 19:06:59;;;;;;;4.65;2.22;;;;;;;21.16;80.90;99264.47;8363812;28;20045;-86
2022/08/01 19:10:59;;;;;;;2.65;2.30;;;;;;;21.07;81.39;99261.19;8327734;28;20494;-85
2022/08/01 19:15:01;;;;;;;2.50;2.30;;;;;;;20.99;82.19;99276.03;8353002;28;20045;-85